Time;durP1;ratioP1;P1;durP2;ratioP2;P2;SDS_P1;SDS_P2;PMS_P1;PMS_P2;Temp;Humidity;BMP_temperature;BMP_pressure;BME280_temperature;BME280_humidity;BME280_pressure;Samples;Min_cycle;Max_cycle;Signal;HPM_P1;HPM_P2
2023/06/06 00:00:15;;;;;;;12.15;9.15;;;;;;;;;;5021285;28;20108;-71
2023/06/06 00:02:44;;;;;;;12.15;9.35;;;;;;;;;;5021765;28;20498;-71
2023/06/06 00:05:13;;;;;;;11.32;9.13;;;;;;;;;;5019964;28;20652;-72
2023/06/06 00:07:40;;;;;;;12.65;9.70;;;;;;;;;;5021655;28;20037;-72
2023/06/06 00:10:07;;;;;;;11.18;8.80;;;;;;;;;;5021092;28;20053;-72
2023/06/06 00:12:33;;;;;;;10.75;8.63;;;;;;;;;;5021717;28;20052;-72
2023/06/06 00:15:01;;;;;;;10.57;8.77;;;;;;;;;;5019704;28;20057;-72
2023/06/06 00:17:27;;;;;;;10.38;8.25;;;;;;;;;;5021708;28;20072;-72
2023/06/06 00:19:53;;;;;;;10.32;8.50;;;;;;;;;;5021572;28;20946;-71
2023/06/06 00:22:22;;;;;;;10.18;8.30;;;;;;;;;;5020100;28;20053;-72
2023/06/06 00:24:48;;;;;;;12.57;9.00;;;;;;;;;;5021315;28;20140;-72
2023/06/06 00:27:13;;;;;;;10.48;8.15;;;;;;;;;;5035847;28;20073;-72
2023/06/06 00:29:39;;;;;;;13.48;8.40;;;;;;;;;;5036416;28;20152;-72
2023/06/06 00:32:05;;;;;;;11.98;8.77;;;;;;;;;;5020555;28;20049;-71
2023/06/06 00:34:30;;;;;;;10.98;8.57;;;;;;;;;;5021767;28;20049;-71
2023/06/06 00:36:56;;;;;;;10.45;8.15;;;;;;;;;;5035468;28;20179;-72
2023/06/06 00:39:21;;;;;;;10.65;7.70;;;;;;;;;;5021066;28;20176;-72
2023/06/06 00:41:48;;;;;;;10.90;7.97;;;;;;;;;;5019964;28;20042;-72
2023/06/06 00:44:14;;;;;;;8.63;7.57;;;;;;;;;;5019107;28;20041;-71
2023/06/06 00:46:40;;;;;;;8.95;7.38;;;;;;;;;;5019450;28;20447;-72
2023/06/06 00:49:10;;;;;;;8.80;7.55;;;;;;;;;;5019065;28;20388;-72
2023/06/06 00:51:36;;;;;;;9.40;7.03;;;;;;;;;;5019578;28;20056;-71
2023/06/06 00:54:02;;;;;;;8.90;7.13;;;;;;;;;;5002876;28;20029;-72
2023/06/06 00:56:29;;;;;;;13.57;7.90;;;;;;;;;;5036106;28;20068;-72
2023/06/06 00:58:58;;;;;;;9.18;7.70;;;;;;;;;;5018279;28;20046;-72
2023/06/06 01:01:28;;;;;;;10.77;7.95;;;;;;;;;;5020818;28;20050;-72
2023/06/06 01:03:56;;;;;;;10.45;9.05;;;;;;;;;;5019905;28;20137;-72
2023/06/06 01:06:25;;;;;;;13.88;8.68;;;;;;;;;;5018749;28;20067;-71
2023/06/06 01:08:50;;;;;;;16.00;8.88;;;;;;;;;;5019067;28;20079;-72
2023/06/06 01:11:49;;;;;;;9.93;7.97;;;;;;;;;;5019562;28;20045;-71
2023/06/06 01:14:39;;;;;;;11.73;8.85;;;;;;;;;;5018608;28;20134;-71
2023/06/06 01:17:07;;;;;;;11.15;9.13;;;;;;;;;;5013658;28;20136;-71
2023/06/06 01:19:37;;;;;;;11.30;8.88;;;;;;;;;;5016862;28;20045;-71
2023/06/06 01:22:04;;;;;;;11.85;8.70;;;;;;;;;;5021273;28;20041;-71
2023/06/06 01:24:31;;;;;;;12.23;7.90;;;;;;;;;;5016955;28;20161;-71
2023/06/06 01:26:56;;;;;;;11.05;8.40;;;;;;;;;;5019168;28;20138;-72
2023/06/06 01:29:22;;;;;;;11.27;8.73;;;;;;;;;;5020730;28;20601;-72
2023/06/06 01:32:26;;;;;;;13.43;9.07;;;;;;;;;;5020429;28;20545;-72
2023/06/06 01:35:26;;;;;;;11.43;8.60;;;;;;;;;;5017050;28;20124;-71
2023/06/06 01:37:59;;;;;;;12.18;8.82;;;;;;;;;;5019350;28;20056;-72
2023/06/06 01:40:29;;;;;;;11.60;8.60;;;;;;;;;;5017960;28;20106;-72
2023/06/06 01:42:55;;;;;;;10.63;8.60;;;;;;;;;;5021829;28;20056;-71
2023/06/06 01:45:26;;;;;;;11.05;8.20;;;;;;;;;;5020220;28;20045;-71
2023/06/06 01:47:53;;;;;;;10.52;8.57;;;;;;;;;;5020002;28;20090;-72
2023/06/06 01:50:18;;;;;;;12.88;8.80;;;;;;;;;;5035134;28;20041;-71
2023/06/06 01:52:44;;;;;;;12.13;9.38;;;;;;;;;;5034579;28;20038;-72
2023/06/06 01:55:10;;;;;;;11.07;8.85;;;;;;;;;;5018631;28;20040;-71
2023/06/06 01:57:36;;;;;;;12.55;8.30;;;;;;;;;;5019108;28;20136;-71
2023/06/06 02:00:12;;;;;;;11.65;8.77;;;;;;;;;;5024322;28;20577;-71
2023/06/06 02:02:40;;;;;;;12.88;8.68;;;;;;;;;;5019015;28;20096;-72
2023/06/06 02:05:06;;;;;;;12.85;8.75;;;;;;;;;;5019742;28;20514;-72
2023/06/06 02:07:34;;;;;;;9.77;8.00;;;;;;;;;;5034625;28;20450;-72
2023/06/06 02:10:02;;;;;;;11.13;8.30;;;;;;;;;;5018095;28;20056;-72
2023/06/06 02:12:28;;;;;;;11.02;8.70;;;;;;;;;;5035545;28;20045;-71
2023/06/06 02:14:54;;;;;;;12.25;9.80;;;;;;;;;;5019344;28;20037;-72
2023/06/06 02:17:20;;;;;;;15.95;10.80;;;;;;;;;;5035283;28;20048;-71
2023/06/06 02:19:46;;;;;;;15.10;10.48;;;;;;;;;;5018091;28;20132;-72
2023/06/06 02:22:12;;;;;;;13.05;9.95;;;;;;;;;;5018133;28;20045;-71
2023/06/06 02:24:37;;;;;;;12.93;10.43;;;;;;;;;;5019532;28;20624;-72
2023/06/06 02:27:03;;;;;;;14.27;9.23;;;;;;;;;;5018692;28;20046;-71
2023/06/06 02:29:29;;;;;;;11.65;9.75;;;;;;;;;;5017772;28;20462;-71
2023/06/06 02:31:56;;;;;;;13.20;9.68;;;;;;;;;;5018577;28;20048;-72
2023/06/06 02:34:24;;;;;;;14.77;10.35;;;;;;;;;;5017989;28;20061;-72
2023/06/06 02:36:51;;;;;;;13.30;9.55;;;;;;;;;;5018982;28;20510;-72
2023/06/06 02:39:17;;;;;;;14.73;9.80;;;;;;;;;;5035289;28;20132;-72
2023/06/06 02:41:42;;;;;;;13.25;10.60;;;;;;;;;;5035136;28;20132;-71
2023/06/06 02:44:07;;;;;;;14.82;9.43;;;;;;;;;;5017565;28;20042;-71
2023/06/06 02:46:33;;;;;;;13.82;10.18;;;;;;;;;;5017668;28;20041;-71
2023/06/06 02:49:00;;;;;;;14.48;10.35;;;;;;;;;;5019308;28;20050;-71
2023/06/06 02:51:27;;;;;;;13.38;9.77;;;;;;;;;;5022021;28;20045;-72
2023/06/06 02:53:53;;;;;;;12.00;9.57;;;;;;;;;;5023312;28;20038;-72
2023/06/06 02:56:19;;;;;;;13.80;10.55;;;;;;;;;;5022915;28;20395;-71
2023/06/06 02:58:44;;;;;;;13.00;10.40;;;;;;;;;;5020964;28;20045;-72
2023/06/06 03:01:13;;;;;;;14.15;9.90;;;;;;;;;;5021844;28;20100;-72
2023/06/06 03:03:39;;;;;;;13.82;10.43;;;;;;;;;;5021813;28;20435;-72
2023/06/06 03:06:06;;;;;;;13.38;10.63;;;;;;;;;;5022864;28;20422;-71
2023/06/06 03:08:33;;;;;;;13.80;10.35;;;;;;;;;;5019960;28;20038;-72
2023/06/06 03:10:59;;;;;;;14.75;11.35;;;;;;;;;;5021555;28;20155;-71
2023/06/06 03:13:24;;;;;;;14.57;11.50;;;;;;;;;;5023100;28;20061;-71
2023/06/06 03:15:50;;;;;;;19.02;11.85;;;;;;;;;;5005188;28;20047;-71
2023/06/06 03:18:20;;;;;;;14.95;11.77;;;;;;;;;;5020832;28;20525;-71
2023/06/06 03:20:51;;;;;;;17.80;12.17;;;;;;;;;;5020691;28;20038;-71
2023/06/06 03:23:17;;;;;;;17.58;11.73;;;;;;;;;;5021678;28;20053;-72
2023/06/06 03:25:43;;;;;;;20.70;12.43;;;;;;;;;;5021192;28;20050;-71
2023/06/06 03:28:12;;;;;;;15.77;12.10;;;;;;;;;;5020342;28;20037;-72
2023/06/06 03:30:38;;;;;;;18.27;12.77;;;;;;;;;;5020091;28;20426;-71
2023/06/06 03:33:06;;;;;;;16.90;12.30;;;;;;;;;;5021389;28;20049;-72
2023/06/06 03:35:34;;;;;;;17.63;13.52;;;;;;;;;;5020938;28;20049;-71
2023/06/06 03:38:01;;;;;;;18.35;12.88;;;;;;;;;;5020138;28;20042;-72
2023/06/06 03:40:27;;;;;;;19.17;13.40;;;;;;;;;;5020420;28;20045;-72
2023/06/06 03:42:53;;;;;;;17.65;13.30;;;;;;;;;;5016879;28;20045;-72
2023/06/06 03:45:21;;;;;;;17.25;12.80;;;;;;;;;;5001410;28;20057;-71
2023/06/06 03:47:47;;;;;;;19.45;13.52;;;;;;;;;;5002783;28;20453;-71
2023/06/06 03:50:13;;;;;;;18.13;13.57;;;;;;;;;;5018801;28;20042;-71
2023/06/06 03:52:40;;;;;;;17.80;13.52;;;;;;;;;;5021510;28;20053;-72
2023/06/06 03:55:07;;;;;;;19.02;14.25;;;;;;;;;;5020712;28;20146;-71
2023/06/06 03:57:33;;;;;;;17.88;13.65;;;;;;;;;;5019186;28;20052;-71
2023/06/06 04:00:00;;;;;;;19.30;13.95;;;;;;;;;;5019614;28;20324;-73
2023/06/06 04:02:27;;;;;;;21.40;14.40;;;;;;;;;;5019635;28;20490;-71
2023/06/06 04:04:54;;;;;;;19.00;14.10;;;;;;;;;;5020489;28;20099;-71
2023/06/06 04:07:20;;;;;;;18.63;13.00;;;;;;;;;;5020795;28;20512;-72
2023/06/06 04:09:45;;;;;;;18.02;13.77;;;;;;;;;;5020076;28;20045;-71
2023/06/06 04:12:11;;;;;;;18.70;13.75;;;;;;;;;;5020027;28;20044;-71
2023/06/06 04:14:36;;;;;;;18.98;13.68;;;;;;;;;;5019416;28;20111;-72
2023/06/06 04:17:02;;;;;;;21.27;13.60;;;;;;;;;;5020280;28;20045;-71
2023/06/06 04:19:29;;;;;;;22.48;13.90;;;;;;;;;;5019798;28;20053;-71
2023/06/06 04:21:54;;;;;;;20.02;13.80;;;;;;;;;;5020258;28;20045;-71
2023/06/06 04:24:20;;;;;;;18.17;14.00;;;;;;;;;;5019311;28;20064;-71
2023/06/06 04:26:46;;;;;;;20.02;13.48;;;;;;;;;;5019985;28;20045;-71
2023/06/06 04:29:13;;;;;;;16.42;13.18;;;;;;;;;;5020294;28;20045;-75
2023/06/06 04:31:44;;;;;;;17.25;13.25;;;;;;;;;;5020092;28;20072;-71
2023/06/06 04:34:12;;;;;;;19.38;13.98;;;;;;;;;;5019607;28;20076;-72
2023/06/06 04:36:40;;;;;;;17.17;13.05;;;;;;;;;;5002651;28;20124;-71
2023/06/06 04:39:07;;;;;;;18.38;14.00;;;;;;;;;;5019412;28;20068;-71
2023/06/06 04:41:34;;;;;;;19.83;14.07;;;;;;;;;;5020187;28;20200;-71
2023/06/06 04:44:02;;;;;;;19.88;14.10;;;;;;;;;;5018739;28;20060;-72
2023/06/06 04:46:29;;;;;;;17.80;13.73;;;;;;;;;;5019454;28;20594;-73
2023/06/06 04:48:56;;;;;;;19.60;13.38;;;;;;;;;;5019851;28;20418;-73
2023/06/06 04:51:30;;;;;;;19.38;13.60;;;;;;;;;;5019598;28;20037;-74
2023/06/06 04:54:01;;;;;;;19.67;13.43;;;;;;;;;;5022924;28;20049;-73
2023/06/06 04:56:30;;;;;;;19.70;13.85;;;;;;;;;;5021924;28;20049;-73
2023/06/06 04:59:06;;;;;;;19.00;14.35;;;;;;;;;;5020208;28;20056;-74
2023/06/06 05:01:37;;;;;;;20.70;13.20;;;;;;;;;;5021423;28;20056;-72
2023/06/06 05:04:03;;;;;;;21.38;13.75;;;;;;;;;;4999267;28;20496;-71
2023/06/06 05:06:31;;;;;;;19.63;13.80;;;;;;;;;;5019457;28;20049;-72
2023/06/06 05:09:07;;;;;;;20.15;14.88;;;;;;;;;;5019552;28;20095;-73
2023/06/06 05:11:34;;;;;;;24.90;14.82;;;;;;;;;;5020719;28;20149;-72
2023/06/06 05:13:59;;;;;;;19.58;14.40;;;;;;;;;;5020333;28;20502;-77
2023/06/06 05:16:25;;;;;;;21.38;15.80;;;;;;;;;;5020832;28;20056;-74
2023/06/06 05:18:51;;;;;;;21.02;14.43;;;;;;;;;;5020316;28;21063;-75
2023/06/06 05:21:18;;;;;;;18.60;14.50;;;;;;;;;;5019808;28;20042;-76
2023/06/06 05:23:44;;;;;;;19.42;14.10;;;;;;;;;;5020985;28;21160;-72
2023/06/06 05:26:10;;;;;;;20.27;14.68;;;;;;;;;;5018602;28;20324;-72
2023/06/06 05:28:37;;;;;;;18.30;13.88;;;;;;;;;;5019110;28;20091;-72
2023/06/06 05:31:02;;;;;;;17.90;13.57;;;;;;;;;;5017526;28;20051;-71
2023/06/06 05:33:30;;;;;;;24.33;14.20;;;;;;;;;;5019558;28;20518;-71
2023/06/06 05:35:56;;;;;;;20.83;13.63;;;;;;;;;;5020775;28;20410;-71
2023/06/06 05:38:22;;;;;;;19.50;13.95;;;;;;;;;;5018468;28;20608;-71
2023/06/06 05:40:48;;;;;;;19.38;13.95;;;;;;;;;;5019165;28;21044;-72
2023/06/06 05:43:14;;;;;;;17.38;13.85;;;;;;;;;;5019535;28;20071;-72
2023/06/06 05:45:40;;;;;;;17.70;13.20;;;;;;;;;;5018635;28;20053;-71
2023/06/06 05:48:05;;;;;;;23.70;12.77;;;;;;;;;;5019997;28;20044;-73
2023/06/06 05:50:31;;;;;;;16.67;12.77;;;;;;;;;;5020337;28;20045;-73
2023/06/06 05:52:57;;;;;;;9.30;6.90;;;;;;;;;;5019902;28;20080;-73
2023/06/06 05:55:33;;;;;;;9.13;6.57;;;;;;;;;;5020112;28;20367;-73
2023/06/06 05:58:00;;;;;;;6.80;5.57;;;;;;;;;;5019873;28;20098;-75
2023/06/06 06:00:27;;;;;;;11.63;5.63;;;;;;;;;;5019769;28;20061;-73
2023/06/06 06:02:55;;;;;;;10.80;5.85;;;;;;;;;;5020312;28;20384;-73
2023/06/06 06:05:22;;;;;;;6.63;5.40;;;;;;;;;;5019354;28;20045;-73
2023/06/06 06:07:49;;;;;;;7.60;5.97;;;;;;;;;;5018385;28;20045;-73
2023/06/06 06:10:15;;;;;;;7.28;5.65;;;;;;;;;;5018098;28;20034;-73
2023/06/06 06:12:42;;;;;;;9.13;5.45;;;;;;;;;;5019916;28;20095;-73
2023/06/06 06:15:08;;;;;;;8.95;4.75;;;;;;;;;;5019074;28;20453;-73
2023/06/06 06:17:34;;;;;;;7.20;5.82;;;;;;;;;;5019766;28;20054;-73
2023/06/06 06:20:03;;;;;;;7.63;4.82;;;;;;;;;;5019984;28;20698;-72
2023/06/06 06:22:28;;;;;;;7.80;4.63;;;;;;;;;;5019634;28;20057;-73
2023/06/06 06:24:54;;;;;;;8.73;4.40;;;;;;;;;;5023421;28;20063;-73
2023/06/06 06:27:19;;;;;;;8.50;5.05;;;;;;;;;;5024655;28;20537;-72
2023/06/06 06:29:45;;;;;;;7.20;4.57;;;;;;;;;;5023278;28;20405;-73
2023/06/06 06:32:11;;;;;;;12.60;4.55;;;;;;;;;;5023574;28;20095;-72
2023/06/06 06:34:36;;;;;;;4.63;4.15;;;;;;;;;;5023644;28;20141;-72
2023/06/06 06:37:02;;;;;;;4.35;3.75;;;;;;;;;;5023425;28;20131;-72
2023/06/06 06:39:27;;;;;;;5.90;3.92;;;;;;;;;;5021883;28;20409;-73
2023/06/06 06:41:53;;;;;;;9.15;4.28;;;;;;;;;;5023758;28;21084;-73
2023/06/06 06:44:18;;;;;;;5.32;4.10;;;;;;;;;;5023134;28;20719;-72
2023/06/06 06:46:44;;;;;;;5.85;4.50;;;;;;;;;;5023408;28;20052;-73
2023/06/06 06:49:17;;;;;;;8.60;4.22;;;;;;;;;;5037755;28;20045;-73
2023/06/06 06:51:43;;;;;;;10.32;4.43;;;;;;;;;;5023745;28;20114;-73
2023/06/06 06:54:12;;;;;;;10.68;4.25;;;;;;;;;;5022874;28;20561;-72
2023/06/06 06:56:43;;;;;;;5.03;3.65;;;;;;;;;;5021828;28;20045;-73
2023/06/06 06:59:09;;;;;;;5.53;4.00;;;;;;;;;;5020492;28;20501;-72
2023/06/06 07:01:37;;;;;;;4.63;4.13;;;;;;;;;;5021870;28;20038;-72
2023/06/06 07:04:05;;;;;;;5.13;4.43;;;;;;;;;;5022443;28;20153;-73
2023/06/06 07:06:33;;;;;;;5.72;4.30;;;;;;;;;;5022928;28;20049;-74
2023/06/06 07:09:00;;;;;;;5.35;4.13;;;;;;;;;;5022609;28;20037;-72
2023/06/06 07:11:26;;;;;;;5.07;3.78;;;;;;;;;;5020845;28;20049;-72
2023/06/06 07:13:52;;;;;;;7.55;3.78;;;;;;;;;;5022951;28;20046;-71
2023/06/06 07:16:18;;;;;;;6.47;4.50;;;;;;;;;;5022197;28;20053;-72
2023/06/06 07:18:47;;;;;;;4.95;4.35;;;;;;;;;;5021649;28;20153;-73
2023/06/06 07:21:12;;;;;;;7.63;4.40;;;;;;;;;;5021822;28;20120;-72
2023/06/06 07:23:39;;;;;;;5.43;4.10;;;;;;;;;;5021373;28;20084;-71
2023/06/06 07:26:06;;;;;;;8.02;4.00;;;;;;;;;;5021014;28;20081;-71
2023/06/06 07:28:31;;;;;;;5.75;4.10;;;;;;;;;;5022336;28;20124;-71
2023/06/06 07:30:56;;;;;;;5.18;4.10;;;;;;;;;;5022596;28;20466;-71
2023/06/06 07:33:22;;;;;;;10.50;4.68;;;;;;;;;;5020690;28;20051;-71
2023/06/06 07:35:47;;;;;;;5.35;4.32;;;;;;;;;;5003285;28;20050;-71
2023/06/06 07:38:13;;;;;;;11.50;4.82;;;;;;;;;;5036688;28;20049;-71
2023/06/06 07:40:38;;;;;;;4.90;4.10;;;;;;;;;;5021107;28;20061;-71
2023/06/06 07:43:05;;;;;;;5.15;4.40;;;;;;;;;;5022166;28;20045;-73
2023/06/06 07:45:30;;;;;;;5.90;4.30;;;;;;;;;;5037477;28;20052;-71
2023/06/06 07:47:56;;;;;;;7.63;4.68;;;;;;;;;;5020530;28;20041;-71
2023/06/06 07:50:22;;;;;;;5.00;4.47;;;;;;;;;;5021968;28;20063;-70
2023/06/06 07:52:48;;;;;;;10.45;5.07;;;;;;;;;;5022412;28;20045;-70
2023/06/06 07:55:14;;;;;;;4.85;4.15;;;;;;;;;;5021469;28;20084;-71
2023/06/06 07:57:40;;;;;;;6.05;4.30;;;;;;;;;;5021992;28;20140;-71
2023/06/06 08:00:10;;;;;;;9.68;4.75;;;;;;;;;;5021349;28;20128;-71
2023/06/06 08:02:38;;;;;;;7.07;4.68;;;;;;;;;;5021849;28;20041;-71
2023/06/06 08:05:07;;;;;;;5.40;4.30;;;;;;;;;;5021582;28;20430;-71
2023/06/06 08:07:38;;;;;;;6.10;4.82;;;;;;;;;;5021599;28;20833;-71
2023/06/06 08:10:06;;;;;;;5.22;4.35;;;;;;;;;;5021390;28;20439;-71
2023/06/06 08:12:32;;;;;;;7.82;4.40;;;;;;;;;;5022067;28;20075;-71
2023/06/06 08:14:57;;;;;;;4.72;4.10;;;;;;;;;;5021936;28;20033;-71
2023/06/06 08:17:23;;;;;;;5.88;3.83;;;;;;;;;;5019299;28;20123;-71
2023/06/06 08:19:49;;;;;;;5.03;3.90;;;;;;;;;;5021539;28;20045;-71
2023/06/06 08:22:15;;;;;;;4.43;3.90;;;;;;;;;;5021206;28;21086;-71
2023/06/06 08:24:41;;;;;;;5.53;3.70;;;;;;;;;;5022066;28;20056;-71
2023/06/06 08:27:07;;;;;;;6.30;3.45;;;;;;;;;;5020799;28;20041;-71
2023/06/06 08:29:33;;;;;;;4.18;3.33;;;;;;;;;;5021336;28;20052;-71
2023/06/06 08:32:01;;;;;;;4.40;3.00;;;;;;;;;;5021324;28;20033;-71
2023/06/06 08:34:27;;;;;;;3.67;2.88;;;;;;;;;;5020677;28;20103;-71
2023/06/06 08:36:53;;;;;;;3.65;3.30;;;;;;;;;;5021740;28;20041;-71
2023/06/06 08:39:18;;;;;;;5.18;3.20;;;;;;;;;;5020172;28;20521;-72
2023/06/06 08:41:49;;;;;;;4.28;3.45;;;;;;;;;;5021486;28;20134;-72
2023/06/06 08:44:15;;;;;;;6.25;3.65;;;;;;;;;;5019572;28;20053;-72
2023/06/06 08:46:41;;;;;;;7.25;3.58;;;;;;;;;;5020735;28;20068;-72
2023/06/06 08:49:08;;;;;;;6.47;3.78;;;;;;;;;;5020142;28;20033;-72
2023/06/06 08:51:34;;;;;;;7.25;4.13;;;;;;;;;;5019954;28;20076;-72
2023/06/06 08:54:00;;;;;;;3.88;3.30;;;;;;;;;;5021132;28;20144;-72
2023/06/06 08:56:26;;;;;;;4.00;3.50;;;;;;;;;;5019232;28;20045;-72
2023/06/06 08:58:52;;;;;;;6.57;4.30;;;;;;;;;;5020961;28;20099;-72
2023/06/06 09:01:19;;;;;;;5.00;3.78;;;;;;;;;;5020033;28;20068;-72
2023/06/06 09:03:45;;;;;;;4.28;3.88;;;;;;;;;;5021018;28;20092;-72
2023/06/06 09:06:17;;;;;;;3.95;3.65;;;;;;;;;;5002337;28;20152;-72
2023/06/06 09:08:44;;;;;;;5.25;3.80;;;;;;;;;;5020978;28;20045;-72
2023/06/06 09:11:10;;;;;;;4.13;3.58;;;;;;;;;;5020717;28;20128;-72
2023/06/06 09:13:40;;;;;;;6.68;3.65;;;;;;;;;;5036535;28;20041;-71
2023/06/06 09:16:07;;;;;;;4.93;3.40;;;;;;;;;;5018864;28;20049;-72
2023/06/06 09:18:32;;;;;;;4.32;3.28;;;;;;;;;;5020831;28;20045;-72
2023/06/06 09:20:58;;;;;;;4.75;3.15;;;;;;;;;;5019404;28;20041;-72
2023/06/06 09:23:29;;;;;;;3.60;3.25;;;;;;;;;;5019841;28;20042;-72
2023/06/06 09:25:54;;;;;;;4.63;3.70;;;;;;;;;;5020388;28;20037;-72
2023/06/06 09:28:20;;;;;;;4.28;3.88;;;;;;;;;;5019747;28;20461;-72
2023/06/06 09:30:46;;;;;;;6.20;4.00;;;;;;;;;;5020413;28;20048;-72
2023/06/06 09:33:14;;;;;;;3.88;3.33;;;;;;;;;;5020142;28;20037;-72
2023/06/06 09:35:43;;;;;;;3.50;3.20;;;;;;;;;;5020514;28;20053;-73
2023/06/06 09:38:15;;;;;;;4.38;3.25;;;;;;;;;;5018522;28;20312;-72
2023/06/06 09:40:45;;;;;;;5.32;3.35;;;;;;;;;;5002153;28;20064;-72
2023/06/06 09:43:11;;;;;;;3.50;3.20;;;;;;;;;;5019683;28;20049;-72
2023/06/06 09:45:49;;;;;;;3.50;3.20;;;;;;;;;;5020265;28;20429;-73
2023/06/06 09:48:22;;;;;;;3.83;3.40;;;;;;;;;;5019912;28;20049;-72
2023/06/06 09:50:49;;;;;;;3.65;3.33;;;;;;;;;;5020551;28;20128;-73
2023/06/06 09:53:14;;;;;;;4.13;3.13;;;;;;;;;;5020411;28;20095;-72
2023/06/06 09:55:44;;;;;;;4.95;3.22;;;;;;;;;;5019164;28;20062;-72
2023/06/06 09:58:14;;;;;;;5.13;2.85;;;;;;;;;;5019389;28;20041;-73
2023/06/06 10:00:40;;;;;;;4.57;2.90;;;;;;;;;;5024154;28;20073;-72
2023/06/06 10:03:06;;;;;;;3.78;3.22;;;;;;;;;;5022929;28;20073;-73
2023/06/06 10:05:32;;;;;;;3.83;3.08;;;;;;;;;;5038779;28;21420;-72
2023/06/06 10:07:58;;;;;;;4.18;3.10;;;;;;;;;;5022940;28;20120;-73
2023/06/06 10:10:24;;;;;;;3.58;3.25;;;;;;;;;;5022284;28;20045;-74
2023/06/06 10:12:53;;;;;;;5.60;3.67;;;;;;;;;;5023092;28;20049;-72
2023/06/06 10:15:20;;;;;;;6.20;3.53;;;;;;;;;;5024152;28;20037;-73
2023/06/06 10:17:46;;;;;;;4.07;3.65;;;;;;;;;;5022775;28;20045;-73
2023/06/06 10:20:12;;;;;;;5.47;3.42;;;;;;;;;;5023743;28;20045;-73
2023/06/06 10:22:40;;;;;;;4.53;3.70;;;;;;;;;;5023449;28;20052;-72
2023/06/06 10:25:16;;;;;;;8.73;3.83;;;;;;;;;;5022643;28;20292;-73
2023/06/06 10:28:13;;;;;;;4.60;3.83;;;;;;;;;;5022942;28;20045;-72
2023/06/06 10:30:42;;;;;;;4.70;3.85;;;;;;;;;;5021025;28;20045;-72
2023/06/06 10:33:58;;;;;;;4.22;3.83;;;;;;;;;;5023890;28;20413;-72
2023/06/06 10:36:23;;;;;;;5.57;3.63;;;;;;;;;;5003238;28;20128;-73
2023/06/06 10:39:23;;;;;;;5.30;3.58;;;;;;;;;;5022645;28;20059;-72
2023/06/06 10:41:59;;;;;;;3.25;3.03;;;;;;;;;;5021521;28;20060;-72
2023/06/06 10:44:35;;;;;;;3.28;2.97;;;;;;;;;;5023260;28;20499;-72
2023/06/06 10:47:28;;;;;;;5.10;3.40;;;;;;;;;;5023430;28;20045;-73
2023/06/06 10:50:10;;;;;;;3.03;2.72;;;;;;;;;;5022209;28;20510;-72
2023/06/06 10:53:05;;;;;;;;;;;;;;;;;;5021221;28;20049;-73
2023/06/06 10:55:30;;;;;;;5.05;3.17;;;;;;;;;;5020133;28;19927;-73
2023/06/06 10:58:18;;;;;;;3.22;2.90;;;;;;;;;;5023234;28;20042;-72
2023/06/06 11:00:45;;;;;;;3.05;2.78;;;;;;;;;;5035252;28;20473;-73
2023/06/06 11:03:13;;;;;;;3.70;2.67;;;;;;;;;;5023365;28;20053;-73
2023/06/06 11:06:00;;;;;;;6.93;2.40;;;;;;;;;;5023458;28;20081;-72
2023/06/06 11:08:35;;;;;;;3.13;2.78;;;;;;;;;;5020668;28;20500;-73
2023/06/06 11:11:21;;;;;;;4.10;2.75;;;;;;;;;;5020349;28;20049;-73
2023/06/06 11:13:56;;;;;;;2.72;2.53;;;;;;;;;;5025897;28;20050;-73
2023/06/06 11:16:40;;;;;;;2.67;2.17;;;;;;;;;;5026251;28;20049;-72
2023/06/06 11:19:11;;;;;;;2.17;1.90;;;;;;;;;;5022990;28;20049;-73
2023/06/06 11:21:37;;;;;;;8.82;2.25;;;;;;;;;;5005676;28;20049;-72
2023/06/06 11:24:04;;;;;;;1.90;1.70;;;;;;;;;;5021467;28;20049;-73
2023/06/06 11:26:30;;;;;;;1.77;1.67;;;;;;;;;;5022802;28;20041;-73
2023/06/06 11:28:55;;;;;;;2.97;1.80;;;;;;;;;;5021695;28;20072;-73
2023/06/06 11:31:24;;;;;;;2.17;1.98;;;;;;;;;;5030516;28;20050;-73
2023/06/06 11:33:50;;;;;;;3.22;1.90;;;;;;;;;;5020317;28;20559;-72
2023/06/06 11:36:17;;;;;;;2.97;1.70;;;;;;;;;;5020585;28;20049;-72
2023/06/06 11:38:42;;;;;;;1.77;1.67;;;;;;;;;;5020750;28;20144;-72
2023/06/06 11:41:08;;;;;;;3.83;1.45;;;;;;;;;;5022699;28;20179;-72
2023/06/06 11:43:34;;;;;;;1.60;1.50;;;;;;;;;;5022651;28;20414;-73
2023/06/06 11:46:05;;;;;;;2.55;1.42;;;;;;;;;;5021384;28;20045;-72
2023/06/06 11:48:30;;;;;;;1.60;1.50;;;;;;;;;;5020259;28;20045;-73
2023/06/06 11:50:56;;;;;;;1.50;1.40;;;;;;;;;;5022610;28;20056;-73
2023/06/06 11:53:29;;;;;;;5.05;1.48;;;;;;;;;;5021035;28;20079;-73
2023/06/06 11:55:54;;;;;;;1.40;1.30;;;;;;;;;;5008660;28;20052;-73
2023/06/06 11:58:20;;;;;;;2.03;1.50;;;;;;;;;;5021301;28;20044;-72
2023/06/06 12:00:46;;;;;;;1.50;1.40;;;;;;;;;;5020471;28;20537;-73
2023/06/06 12:03:15;;;;;;;1.52;1.42;;;;;;;;;;5022490;28;21015;-72
2023/06/06 12:05:41;;;;;;;2.30;1.42;;;;;;;;;;5020453;28;20997;-72
2023/06/06 12:08:07;;;;;;;1.60;1.50;;;;;;;;;;5035473;28;20041;-73
2023/06/06 12:10:33;;;;;;;1.60;1.48;;;;;;;;;;5021811;28;20045;-72
2023/06/06 12:12:59;;;;;;;1.40;1.30;;;;;;;;;;5022153;28;20071;-73
2023/06/06 12:15:51;;;;;;;4.93;1.63;;;;;;;;;;5020586;28;20131;-73
2023/06/06 12:18:17;;;;;;;1.70;1.60;;;;;;;;;;5018653;28;20052;-73
2023/06/06 12:20:42;;;;;;;2.75;1.77;;;;;;;;;;5021165;28;20049;-72
2023/06/06 12:23:08;;;;;;;1.60;1.50;;;;;;;;;;5021442;28;20042;-73
2023/06/06 12:25:33;;;;;;;2.17;1.70;;;;;;;;;;5021544;28;20042;-73
2023/06/06 12:28:09;;;;;;;7.85;1.75;;;;;;;;;;5021632;28;20060;-73
2023/06/06 12:30:34;;;;;;;3.15;1.55;;;;;;;;;;5018099;28;20098;-73
2023/06/06 12:33:03;;;;;;;1.77;1.60;;;;;;;;;;5021382;28;20450;-73
2023/06/06 12:35:30;;;;;;;2.35;1.90;;;;;;;;;;5021638;28;20448;-73
2023/06/06 12:37:55;;;;;;;3.92;1.80;;;;;;;;;;5021120;28;20052;-73
2023/06/06 12:40:33;;;;;;;2.33;1.60;;;;;;;;;;5020128;28;20056;-73
2023/06/06 12:43:04;;;;;;;2.17;2.00;;;;;;;;;;5021570;28;20056;-72
2023/06/06 12:45:34;;;;;;;1.77;1.65;;;;;;;;;;5020105;28;20482;-73
2023/06/06 12:48:00;;;;;;;2.60;1.70;;;;;;;;;;5021555;28;20041;-73
2023/06/06 12:50:25;;;;;;;2.80;2.00;;;;;;;;;;5023051;28;20056;-73
2023/06/06 12:52:51;;;;;;;1.85;1.63;;;;;;;;;;5021741;28;20410;-73
2023/06/06 12:55:17;;;;;;;1.70;1.60;;;;;;;;;;5003132;28;20067;-72
2023/06/06 12:57:47;;;;;;;1.80;1.70;;;;;;;;;;5019529;28;20695;-73
2023/06/06 13:00:15;;;;;;;1.70;1.60;;;;;;;;;;5018446;28;20302;-73
2023/06/06 13:02:44;;;;;;;3.17;1.75;;;;;;;;;;5019723;28;20055;-73
2023/06/06 13:05:10;;;;;;;1.92;1.63;;;;;;;;;;5020970;28;20418;-73
2023/06/06 13:07:36;;;;;;;2.08;1.88;;;;;;;;;;5019211;28;20049;-73
2023/06/06 13:10:03;;;;;;;2.17;1.95;;;;;;;;;;5019601;28;20056;-73
2023/06/06 13:12:29;;;;;;;2.40;1.73;;;;;;;;;;5019465;28;20574;-73
2023/06/06 13:14:57;;;;;;;3.70;2.03;;;;;;;;;;5020727;28;20046;-73
2023/06/06 13:17:24;;;;;;;3.72;1.80;;;;;;;;;;5020391;28;20053;-72
2023/06/06 13:19:50;;;;;;;1.90;1.80;;;;;;;;;;5018843;28;20049;-73
2023/06/06 13:22:16;;;;;;;3.63;1.80;;;;;;;;;;5019252;28;20041;-72
2023/06/06 13:24:41;;;;;;;4.05;2.25;;;;;;;;;;5020470;28;20119;-72
2023/06/06 13:27:07;;;;;;;4.72;1.80;;;;;;;;;;5020380;28;20041;-72
2023/06/06 13:29:34;;;;;;;5.53;1.85;;;;;;;;;;5020323;28;20107;-73
2023/06/06 13:31:59;;;;;;;2.28;1.70;;;;;;;;;;5020315;28;20482;-72
2023/06/06 13:34:25;;;;;;;5.93;2.10;;;;;;;;;;5019171;28;20099;-72
2023/06/06 13:36:50;;;;;;;3.38;1.83;;;;;;;;;;5018794;28;20053;-73
2023/06/06 13:39:15;;;;;;;7.72;2.13;;;;;;;;;;5020106;28;20037;-73
2023/06/06 13:41:42;;;;;;;2.45;1.70;;;;;;;;;;5019070;28;20062;-73
2023/06/06 13:44:17;;;;;;;6.10;2.10;;;;;;;;;;5032812;28;20558;-73
2023/06/06 13:46:43;;;;;;;1.83;1.73;;;;;;;;;;5020374;28;20060;-73
2023/06/06 13:49:12;;;;;;;8.13;1.80;;;;;;;;;;5020483;28;20037;-73
2023/06/06 13:51:38;;;;;;;2.40;1.80;;;;;;;;;;5021364;28;20061;-72
2023/06/06 13:54:04;;;;;;;3.78;1.90;;;;;;;;;;5020402;28;20056;-75
2023/06/06 13:56:30;;;;;;;2.67;2.25;;;;;;;;;;5019687;28;20057;-72
2023/06/06 13:58:55;;;;;;;4.70;2.35;;;;;;;;;;5007660;28;20049;-72
2023/06/06 14:01:21;;;;;;;2.22;2.03;;;;;;;;;;5021956;28;20056;-72
2023/06/06 14:03:48;;;;;;;3.72;1.92;;;;;;;;;;5021736;28;20072;-73
2023/06/06 14:06:14;;;;;;;2.35;2.03;;;;;;;;;;5019268;28;20076;-73
2023/06/06 14:08:41;;;;;;;3.28;1.98;;;;;;;;;;5019585;28;20317;-73
2023/06/06 14:11:10;;;;;;;3.55;1.77;;;;;;;;;;5020377;28;20099;-73
2023/06/06 14:13:36;;;;;;;2.10;1.90;;;;;;;;;;5018805;28;20148;-73
2023/06/06 14:16:02;;;;;;;2.55;1.90;;;;;;;;;;5020138;28;20053;-73
2023/06/06 14:18:28;;;;;;;2.90;2.15;;;;;;;;;;5018693;28;20041;-72
2023/06/06 14:21:10;;;;;;;2.25;2.05;;;;;;;;;;5019740;28;20517;-73
2023/06/06 14:23:42;;;;;;;3.15;1.60;;;;;;;;;;5020151;28;20132;-73
2023/06/06 14:26:07;;;;;;;4.18;1.90;;;;;;;;;;5019534;28;20037;-73
2023/06/06 14:28:33;;;;;;;2.40;2.10;;;;;;;;;;5017549;28;20509;-72
2023/06/06 14:30:58;;;;;;;2.92;1.85;;;;;;;;;;5019977;28;20064;-74
2023/06/06 14:33:24;;;;;;;5.30;2.00;;;;;;;;;;5019665;28;20050;-73
2023/06/06 14:35:49;;;;;;;6.55;2.00;;;;;;;;;;5019749;28;20139;-73
2023/06/06 14:38:15;;;;;;;3.42;2.10;;;;;;;;;;5018458;28;20038;-73
2023/06/06 14:40:40;;;;;;;2.10;1.90;;;;;;;;;;5017449;28;20076;-74